sensor_id;sensor_type;location;lat;lon;timestamp;P1;durP1;ratioP1;P2;durP2;ratioP2
38693;SDS011;24447;43.460;25.744;2024-02-14T00:00:18;12.98;;;4.43;;
38693;SDS011;24447;43.460;25.744;2024-02-14T00:02:45;8.57;;;3.63;;
38693;SDS011;24447;43.460;25.744;2024-02-14T00:05:15;8.82;;;3.65;;
38693;SDS011;24447;43.460;25.744;2024-02-14T00:07:41;11.30;;;4.25;;
38693;SDS011;24447;43.460;25.744;2024-02-14T00:10:07;8.70;;;3.90;;
38693;SDS011;24447;43.460;25.744;2024-02-14T00:12:34;9.05;;;3.67;;
38693;SDS011;24447;43.460;25.744;2024-02-14T00:15:00;9.40;;;4.07;;
38693;SDS011;24447;43.460;25.744;2024-02-14T00:17:28;8.57;;;3.72;;
38693;SDS011;24447;43.460;25.744;2024-02-14T00:19:54;8.80;;;3.83;;
38693;SDS011;24447;43.460;25.744;2024-02-14T00:22:20;14.25;;;5.18;;
38693;SDS011;24447;43.460;25.744;2024-02-14T00:24:46;9.27;;;4.20;;
38693;SDS011;24447;43.460;25.744;2024-02-14T00:27:12;10.30;;;4.25;;
38693;SDS011;24447;43.460;25.744;2024-02-14T00:29:39;13.57;;;4.90;;
38693;SDS011;24447;43.460;25.744;2024-02-14T00:32:06;9.07;;;4.40;;
38693;SDS011;24447;43.460;25.744;2024-02-14T00:34:32;10.07;;;4.18;;
38693;SDS011;24447;43.460;25.744;2024-02-14T00:36:58;12.98;;;4.97;;
38693;SDS011;24447;43.460;25.744;2024-02-14T00:39:24;10.85;;;3.70;;
38693;SDS011;24447;43.460;25.744;2024-02-14T00:41:50;11.98;;;4.85;;
38693;SDS011;24447;43.460;25.744;2024-02-14T00:44:18;12.80;;;4.60;;
38693;SDS011;24447;43.460;25.744;2024-02-14T00:46:44;15.63;;;4.90;;
38693;SDS011;24447;43.460;25.744;2024-02-14T00:49:10;15.82;;;5.60;;
38693;SDS011;24447;43.460;25.744;2024-02-14T00:51:36;11.38;;;4.60;;
38693;SDS011;24447;43.460;25.744;2024-02-14T00:54:03;10.02;;;4.68;;
38693;SDS011;24447;43.460;25.744;2024-02-14T00:56:29;13.65;;;4.85;;
38693;SDS011;24447;43.460;25.744;2024-02-14T00:58:55;15.20;;;5.45;;
38693;SDS011;24447;43.460;25.744;2024-02-14T01:01:21;15.15;;;6.00;;
38693;SDS011;24447;43.460;25.744;2024-02-14T01:03:47;14.05;;;5.95;;
38693;SDS011;24447;43.460;25.744;2024-02-14T01:06:14;12.77;;;5.03;;
38693;SDS011;24447;43.460;25.744;2024-02-14T01:08:41;13.23;;;4.82;;
38693;SDS011;24447;43.460;25.744;2024-02-14T01:11:10;15.02;;;6.03;;
38693;SDS011;24447;43.460;25.744;2024-02-14T01:13:36;16.17;;;6.03;;
38693;SDS011;24447;43.460;25.744;2024-02-14T01:16:02;10.75;;;4.20;;
38693;SDS011;24447;43.460;25.744;2024-02-14T01:18:32;10.32;;;4.13;;
38693;SDS011;24447;43.460;25.744;2024-02-14T01:20:58;12.80;;;5.03;;
38693;SDS011;24447;43.460;25.744;2024-02-14T01:23:25;14.05;;;4.60;;
38693;SDS011;24447;43.460;25.744;2024-02-14T01:25:51;8.52;;;3.75;;
38693;SDS011;24447;43.460;25.744;2024-02-14T01:28:19;11.82;;;4.25;;
38693;SDS011;24447;43.460;25.744;2024-02-14T01:30:45;12.50;;;4.60;;
38693;SDS011;24447;43.460;25.744;2024-02-14T01:33:11;11.00;;;4.22;;
38693;SDS011;24447;43.460;25.744;2024-02-14T01:35:37;8.15;;;3.10;;
38693;SDS011;24447;43.460;25.744;2024-02-14T01:38:03;9.07;;;3.92;;
38693;SDS011;24447;43.460;25.744;2024-02-14T01:40:30;8.68;;;3.42;;
38693;SDS011;24447;43.460;25.744;2024-02-14T01:42:56;7.78;;;3.22;;
38693;SDS011;24447;43.460;25.744;2024-02-14T01:45:21;9.38;;;3.03;;
38693;SDS011;24447;43.460;25.744;2024-02-14T01:47:48;8.10;;;2.97;;
38693;SDS011;24447;43.460;25.744;2024-02-14T01:50:15;5.60;;;3.00;;
38693;SDS011;24447;43.460;25.744;2024-02-14T01:52:43;8.95;;;2.92;;
38693;SDS011;24447;43.460;25.744;2024-02-14T01:55:10;5.00;;;2.30;;
38693;SDS011;24447;43.460;25.744;2024-02-14T01:57:36;11.80;;;2.67;;
38693;SDS011;24447;43.460;25.744;2024-02-14T02:00:05;6.53;;;2.65;;
38693;SDS011;24447;43.460;25.744;2024-02-14T02:02:43;7.72;;;2.63;;
38693;SDS011;24447;43.460;25.744;2024-02-14T02:05:11;5.45;;;2.60;;
38693;SDS011;24447;43.460;25.744;2024-02-14T02:07:38;8.00;;;2.83;;
38693;SDS011;24447;43.460;25.744;2024-02-14T02:10:08;3.15;;;1.77;;
38693;SDS011;24447;43.460;25.744;2024-02-14T02:12:35;4.85;;;2.70;;
38693;SDS011;24447;43.460;25.744;2024-02-14T02:15:04;2.60;;;1.63;;
38693;SDS011;24447;43.460;25.744;2024-02-14T02:17:36;4.35;;;2.55;;
38693;SDS011;24447;43.460;25.744;2024-02-14T02:20:02;2.95;;;1.63;;
38693;SDS011;24447;43.460;25.744;2024-02-14T02:22:30;4.32;;;2.03;;
38693;SDS011;24447;43.460;25.744;2024-02-14T02:25:00;5.78;;;2.33;;
38693;SDS011;24447;43.460;25.744;2024-02-14T02:27:26;5.63;;;2.38;;
38693;SDS011;24447;43.460;25.744;2024-02-14T02:29:52;3.50;;;1.95;;
38693;SDS011;24447;43.460;25.744;2024-02-14T02:32:18;6.07;;;2.15;;
38693;SDS011;24447;43.460;25.744;2024-02-14T02:34:44;4.97;;;2.00;;
38693;SDS011;24447;43.460;25.744;2024-02-14T02:37:10;4.80;;;1.80;;
38693;SDS011;24447;43.460;25.744;2024-02-14T02:39:37;3.40;;;1.40;;
38693;SDS011;24447;43.460;25.744;2024-02-14T02:42:03;4.25;;;1.55;;
38693;SDS011;24447;43.460;25.744;2024-02-14T02:44:30;6.82;;;1.83;;
38693;SDS011;24447;43.460;25.744;2024-02-14T02:46:56;1.33;;;1.17;;
38693;SDS011;24447;43.460;25.744;2024-02-14T02:49:22;3.67;;;1.75;;
38693;SDS011;24447;43.460;25.744;2024-02-14T02:51:48;2.38;;;1.75;;
38693;SDS011;24447;43.460;25.744;2024-02-14T02:54:14;4.75;;;1.95;;
38693;SDS011;24447;43.460;25.744;2024-02-14T02:56:43;4.88;;;2.63;;
38693;SDS011;24447;43.460;25.744;2024-02-14T02:59:09;2.97;;;1.35;;
38693;SDS011;24447;43.460;25.744;2024-02-14T03:01:35;3.00;;;1.63;;
38693;SDS011;24447;43.460;25.744;2024-02-14T03:04:02;2.70;;;1.63;;
38693;SDS011;24447;43.460;25.744;2024-02-14T03:06:28;2.85;;;1.25;;
38693;SDS011;24447;43.460;25.744;2024-02-14T03:08:54;1.95;;;1.58;;
38693;SDS011;24447;43.460;25.744;2024-02-14T03:11:22;1.85;;;1.30;;
38693;SDS011;24447;43.460;25.744;2024-02-14T03:13:48;4.22;;;2.50;;
38693;SDS011;24447;43.460;25.744;2024-02-14T03:16:14;3.08;;;1.92;;
38693;SDS011;24447;43.460;25.744;2024-02-14T03:18:42;2.40;;;1.25;;
38693;SDS011;24447;43.460;25.744;2024-02-14T03:21:08;5.38;;;1.48;;
38693;SDS011;24447;43.460;25.744;2024-02-14T03:23:34;0.90;;;0.90;;
38693;SDS011;24447;43.460;25.744;2024-02-14T03:26:00;5.47;;;2.22;;
38693;SDS011;24447;43.460;25.744;2024-02-14T03:28:25;2.65;;;2.08;;
38693;SDS011;24447;43.460;25.744;2024-02-14T03:30:52;4.13;;;1.83;;
38693;SDS011;24447;43.460;25.744;2024-02-14T03:33:19;9.18;;;2.45;;
38693;SDS011;24447;43.460;25.744;2024-02-14T03:35:45;8.05;;;2.83;;
38693;SDS011;24447;43.460;25.744;2024-02-14T03:38:11;9.23;;;3.28;;
38693;SDS011;24447;43.460;25.744;2024-02-14T03:40:39;12.48;;;4.60;;
38693;SDS011;24447;43.460;25.744;2024-02-14T03:43:07;13.10;;;3.10;;
38693;SDS011;24447;43.460;25.744;2024-02-14T03:45:36;9.57;;;3.45;;
38693;SDS011;24447;43.460;25.744;2024-02-14T03:48:02;6.85;;;3.03;;
38693;SDS011;24447;43.460;25.744;2024-02-14T03:50:29;12.40;;;3.22;;
38693;SDS011;24447;43.460;25.744;2024-02-14T03:52:55;11.90;;;3.90;;
38693;SDS011;24447;43.460;25.744;2024-02-14T03:55:21;9.70;;;3.33;;
38693;SDS011;24447;43.460;25.744;2024-02-14T03:57:48;11.18;;;3.58;;
38693;SDS011;24447;43.460;25.744;2024-02-14T04:00:16;11.07;;;3.20;;
38693;SDS011;24447;43.460;25.744;2024-02-14T04:02:42;10.15;;;3.60;;
38693;SDS011;24447;43.460;25.744;2024-02-14T04:05:08;8.73;;;3.13;;
38693;SDS011;24447;43.460;25.744;2024-02-14T04:07:34;7.18;;;2.78;;
38693;SDS011;24447;43.460;25.744;2024-02-14T04:10:02;11.45;;;4.15;;
38693;SDS011;24447;43.460;25.744;2024-02-14T04:12:28;13.90;;;4.38;;
38693;SDS011;24447;43.460;25.744;2024-02-14T04:14:54;4.88;;;2.28;;
38693;SDS011;24447;43.460;25.744;2024-02-14T04:17:19;6.57;;;2.45;;
38693;SDS011;24447;43.460;25.744;2024-02-14T04:19:45;5.47;;;2.22;;
38693;SDS011;24447;43.460;25.744;2024-02-14T04:22:11;9.32;;;4.30;;
38693;SDS011;24447;43.460;25.744;2024-02-14T04:24:37;13.32;;;5.50;;
38693;SDS011;24447;43.460;25.744;2024-02-14T04:27:04;9.73;;;4.25;;
38693;SDS011;24447;43.460;25.744;2024-02-14T04:29:30;8.25;;;4.68;;
38693;SDS011;24447;43.460;25.744;2024-02-14T04:31:58;9.68;;;4.20;;
38693;SDS011;24447;43.460;25.744;2024-02-14T04:34:27;9.55;;;3.83;;
38693;SDS011;24447;43.460;25.744;2024-02-14T04:36:53;6.05;;;2.75;;
38693;SDS011;24447;43.460;25.744;2024-02-14T04:39:18;4.90;;;2.53;;
38693;SDS011;24447;43.460;25.744;2024-02-14T04:41:44;7.13;;;3.08;;
38693;SDS011;24447;43.460;25.744;2024-02-14T04:44:10;8.25;;;3.88;;
38693;SDS011;24447;43.460;25.744;2024-02-14T04:46:36;9.95;;;4.65;;
38693;SDS011;24447;43.460;25.744;2024-02-14T04:49:04;19.38;;;5.65;;
38693;SDS011;24447;43.460;25.744;2024-02-14T04:51:30;12.88;;;5.18;;
38693;SDS011;24447;43.460;25.744;2024-02-14T04:53:57;12.52;;;5.13;;
38693;SDS011;24447;43.460;25.744;2024-02-14T04:56:26;17.30;;;5.45;;
38693;SDS011;24447;43.460;25.744;2024-02-14T04:58:55;8.68;;;4.05;;
38693;SDS011;24447;43.460;25.744;2024-02-14T05:01:21;7.28;;;3.42;;
38693;SDS011;24447;43.460;25.744;2024-02-14T05:03:47;13.20;;;5.95;;
38693;SDS011;24447;43.460;25.744;2024-02-14T05:06:14;18.13;;;7.75;;
38693;SDS011;24447;43.460;25.744;2024-02-14T05:08:40;11.30;;;5.03;;
38693;SDS011;24447;43.460;25.744;2024-02-14T05:11:06;12.90;;;6.05;;
38693;SDS011;24447;43.460;25.744;2024-02-14T05:13:32;13.10;;;5.72;;
38693;SDS011;24447;43.460;25.744;2024-02-14T05:16:01;11.63;;;5.65;;
38693;SDS011;24447;43.460;25.744;2024-02-14T05:18:28;14.48;;;5.65;;
38693;SDS011;24447;43.460;25.744;2024-02-14T05:20:54;16.50;;;5.93;;
38693;SDS011;24447;43.460;25.744;2024-02-14T05:23:20;16.55;;;5.90;;
38693;SDS011;24447;43.460;25.744;2024-02-14T05:25:46;12.15;;;4.68;;
38693;SDS011;24447;43.460;25.744;2024-02-14T05:28:13;14.77;;;5.55;;
38693;SDS011;24447;43.460;25.744;2024-02-14T05:30:42;12.32;;;5.40;;
38693;SDS011;24447;43.460;25.744;2024-02-14T05:33:09;12.57;;;5.15;;
38693;SDS011;24447;43.460;25.744;2024-02-14T05:35:36;22.63;;;8.95;;
38693;SDS011;24447;43.460;25.744;2024-02-14T05:38:04;16.20;;;6.45;;
38693;SDS011;24447;43.460;25.744;2024-02-14T05:40:32;13.75;;;5.70;;
38693;SDS011;24447;43.460;25.744;2024-02-14T05:42:59;7.47;;;3.85;;
38693;SDS011;24447;43.460;25.744;2024-02-14T05:45:24;6.57;;;3.53;;
38693;SDS011;24447;43.460;25.744;2024-02-14T05:47:50;9.75;;;4.60;;
38693;SDS011;24447;43.460;25.744;2024-02-14T05:50:16;10.65;;;4.97;;
38693;SDS011;24447;43.460;25.744;2024-02-14T05:52:42;16.98;;;7.05;;
38693;SDS011;24447;43.460;25.744;2024-02-14T05:55:08;10.07;;;4.63;;
38693;SDS011;24447;43.460;25.744;2024-02-14T05:57:34;10.55;;;4.53;;
38693;SDS011;24447;43.460;25.744;2024-02-14T06:00:00;10.55;;;4.28;;
38693;SDS011;24447;43.460;25.744;2024-02-14T06:02:27;11.15;;;3.55;;
38693;SDS011;24447;43.460;25.744;2024-02-14T06:04:53;8.60;;;2.35;;
38693;SDS011;24447;43.460;25.744;2024-02-14T06:07:19;9.85;;;2.75;;
38693;SDS011;24447;43.460;25.744;2024-02-14T06:09:45;5.82;;;2.72;;
38693;SDS011;24447;43.460;25.744;2024-02-14T06:12:11;6.80;;;3.05;;
38693;SDS011;24447;43.460;25.744;2024-02-14T06:14:37;9.27;;;3.28;;
38693;SDS011;24447;43.460;25.744;2024-02-14T06:17:02;12.52;;;3.72;;
38693;SDS011;24447;43.460;25.744;2024-02-14T06:19:28;5.82;;;2.90;;
38693;SDS011;24447;43.460;25.744;2024-02-14T06:21:55;14.10;;;3.78;;
38693;SDS011;24447;43.460;25.744;2024-02-14T06:24:21;12.05;;;4.15;;
38693;SDS011;24447;43.460;25.744;2024-02-14T06:26:47;9.98;;;4.03;;
38693;SDS011;24447;43.460;25.744;2024-02-14T06:29:13;13.15;;;3.95;;
38693;SDS011;24447;43.460;25.744;2024-02-14T06:31:39;7.32;;;3.67;;
38693;SDS011;24447;43.460;25.744;2024-02-14T06:34:05;10.52;;;4.25;;
38693;SDS011;24447;43.460;25.744;2024-02-14T06:36:33;12.23;;;3.90;;
38693;SDS011;24447;43.460;25.744;2024-02-14T06:38:59;9.90;;;3.50;;
38693;SDS011;24447;43.460;25.744;2024-02-14T06:41:25;8.32;;;3.90;;
38693;SDS011;24447;43.460;25.744;2024-02-14T06:43:50;9.90;;;3.00;;
38693;SDS011;24447;43.460;25.744;2024-02-14T06:46:16;8.10;;;3.75;;
38693;SDS011;24447;43.460;25.744;2024-02-14T06:48:43;8.23;;;3.45;;
38693;SDS011;24447;43.460;25.744;2024-02-14T06:51:09;9.48;;;3.20;;
38693;SDS011;24447;43.460;25.744;2024-02-14T06:53:35;8.13;;;3.40;;
38693;SDS011;24447;43.460;25.744;2024-02-14T06:56:01;8.77;;;3.75;;
38693;SDS011;24447;43.460;25.744;2024-02-14T06:58:27;5.80;;;2.10;;
38693;SDS011;24447;43.460;25.744;2024-02-14T07:00:53;4.10;;;2.33;;
38693;SDS011;24447;43.460;25.744;2024-02-14T07:03:19;12.43;;;4.07;;
38693;SDS011;24447;43.460;25.744;2024-02-14T07:05:44;27.10;;;7.57;;
38693;SDS011;24447;43.460;25.744;2024-02-14T07:08:10;32.40;;;9.60;;
38693;SDS011;24447;43.460;25.744;2024-02-14T07:10:36;27.15;;;7.90;;
38693;SDS011;24447;43.460;25.744;2024-02-14T07:13:02;21.35;;;6.57;;
38693;SDS011;24447;43.460;25.744;2024-02-14T07:15:28;20.35;;;6.57;;
38693;SDS011;24447;43.460;25.744;2024-02-14T07:17:54;22.15;;;6.40;;
38693;SDS011;24447;43.460;25.744;2024-02-14T07:20:22;19.50;;;7.15;;
38693;SDS011;24447;43.460;25.744;2024-02-14T07:22:51;16.05;;;7.07;;
38693;SDS011;24447;43.460;25.744;2024-02-14T07:25:18;18.58;;;6.50;;
38693;SDS011;24447;43.460;25.744;2024-02-14T07:27:45;19.42;;;7.90;;
38693;SDS011;24447;43.460;25.744;2024-02-14T07:30:13;16.88;;;7.60;;
38693;SDS011;24447;43.460;25.744;2024-02-14T07:32:39;23.83;;;9.05;;
38693;SDS011;24447;43.460;25.744;2024-02-14T07:35:05;27.90;;;10.00;;
38693;SDS011;24447;43.460;25.744;2024-02-14T07:37:32;22.30;;;10.10;;
38693;SDS011;24447;43.460;25.744;2024-02-14T07:39:58;20.52;;;8.07;;
38693;SDS011;24447;43.460;25.744;2024-02-14T07:42:24;18.75;;;7.18;;
38693;SDS011;24447;43.460;25.744;2024-02-14T07:44:49;22.50;;;8.52;;
38693;SDS011;24447;43.460;25.744;2024-02-14T07:47:15;26.67;;;9.55;;
38693;SDS011;24447;43.460;25.744;2024-02-14T07:49:41;25.35;;;8.90;;
38693;SDS011;24447;43.460;25.744;2024-02-14T07:52:07;18.00;;;7.43;;
38693;SDS011;24447;43.460;25.744;2024-02-14T07:54:33;19.10;;;7.88;;
38693;SDS011;24447;43.460;25.744;2024-02-14T07:56:59;23.90;;;10.95;;
38693;SDS011;24447;43.460;25.744;2024-02-14T07:59:25;27.65;;;9.10;;
38693;SDS011;24447;43.460;25.744;2024-02-14T08:01:50;24.13;;;9.82;;
38693;SDS011;24447;43.460;25.744;2024-02-14T08:04:16;21.20;;;8.73;;
38693;SDS011;24447;43.460;25.744;2024-02-14T08:06:44;27.88;;;9.85;;
38693;SDS011;24447;43.460;25.744;2024-02-14T08:09:11;22.08;;;9.90;;
38693;SDS011;24447;43.460;25.744;2024-02-14T08:11:36;45.28;;;14.43;;
38693;SDS011;24447;43.460;25.744;2024-02-14T08:14:03;58.85;;;23.35;;
38693;SDS011;24447;43.460;25.744;2024-02-14T08:16:30;40.00;;;14.20;;
38693;SDS011;24447;43.460;25.744;2024-02-14T08:18:56;26.55;;;10.10;;
38693;SDS011;24447;43.460;25.744;2024-02-14T08:21:27;21.35;;;7.57;;
38693;SDS011;24447;43.460;25.744;2024-02-14T08:23:53;20.33;;;7.60;;
38693;SDS011;24447;43.460;25.744;2024-02-14T08:26:20;17.77;;;6.63;;
38693;SDS011;24447;43.460;25.744;2024-02-14T08:28:47;16.00;;;4.82;;
38693;SDS011;24447;43.460;25.744;2024-02-14T08:31:14;16.55;;;5.53;;
38693;SDS011;24447;43.460;25.744;2024-02-14T08:33:40;21.85;;;6.75;;
38693;SDS011;24447;43.460;25.744;2024-02-14T08:36:06;19.85;;;7.50;;
38693;SDS011;24447;43.460;25.744;2024-02-14T08:38:32;18.60;;;7.18;;
38693;SDS011;24447;43.460;25.744;2024-02-14T08:41:00;24.17;;;7.60;;
38693;SDS011;24447;43.460;25.744;2024-02-14T08:43:27;30.33;;;11.95;;
38693;SDS011;24447;43.460;25.744;2024-02-14T08:45:56;28.17;;;9.77;;
38693;SDS011;24447;43.460;25.744;2024-02-14T08:48:23;31.52;;;14.00;;
38693;SDS011;24447;43.460;25.744;2024-02-14T08:50:49;22.80;;;9.23;;
38693;SDS011;24447;43.460;25.744;2024-02-14T08:53:15;24.17;;;9.00;;
38693;SDS011;24447;43.460;25.744;2024-02-14T08:55:41;18.42;;;6.80;;
38693;SDS011;24447;43.460;25.744;2024-02-14T08:58:07;18.58;;;6.75;;
38693;SDS011;24447;43.460;25.744;2024-02-14T09:00:37;22.30;;;8.85;;
38693;SDS011;24447;43.460;25.744;2024-02-14T09:03:04;17.83;;;6.40;;
38693;SDS011;24447;43.460;25.744;2024-02-14T09:05:31;17.08;;;6.85;;
38693;SDS011;24447;43.460;25.744;2024-02-14T09:07:57;18.33;;;6.53;;
38693;SDS011;24447;43.460;25.744;2024-02-14T09:10:24;10.82;;;4.50;;
38693;SDS011;24447;43.460;25.744;2024-02-14T09:12:50;19.50;;;6.25;;
38693;SDS011;24447;43.460;25.744;2024-02-14T09:15:16;16.20;;;5.72;;
38693;SDS011;24447;43.460;25.744;2024-02-14T09:17:42;23.02;;;9.07;;
38693;SDS011;24447;43.460;25.744;2024-02-14T09:20:08;20.30;;;7.22;;
38693;SDS011;24447;43.460;25.744;2024-02-14T09:22:35;22.02;;;8.10;;
38693;SDS011;24447;43.460;25.744;2024-02-14T09:25:01;21.17;;;7.65;;
38693;SDS011;24447;43.460;25.744;2024-02-14T09:27:31;30.92;;;9.05;;
38693;SDS011;24447;43.460;25.744;2024-02-14T09:29:58;33.10;;;10.70;;
38693;SDS011;24447;43.460;25.744;2024-02-14T09:32:24;30.98;;;10.77;;
38693;SDS011;24447;43.460;25.744;2024-02-14T09:34:50;40.88;;;13.48;;
38693;SDS011;24447;43.460;25.744;2024-02-14T09:37:16;40.58;;;13.75;;
38693;SDS011;24447;43.460;25.744;2024-02-14T09:39:42;28.40;;;10.98;;
38693;SDS011;24447;43.460;25.744;2024-02-14T09:42:09;31.95;;;12.30;;
38693;SDS011;24447;43.460;25.744;2024-02-14T09:44:39;26.10;;;9.27;;
38693;SDS011;24447;43.460;25.744;2024-02-14T09:47:05;34.13;;;11.13;;
38693;SDS011;24447;43.460;25.744;2024-02-14T09:49:34;57.95;;;22.27;;
38693;SDS011;24447;43.460;25.744;2024-02-14T09:52:03;33.40;;;12.85;;
38693;SDS011;24447;43.460;25.744;2024-02-14T09:54:31;23.55;;;9.23;;
38693;SDS011;24447;43.460;25.744;2024-02-14T09:56:59;29.52;;;11.00;;
38693;SDS011;24447;43.460;25.744;2024-02-14T09:59:25;25.67;;;9.35;;
38693;SDS011;24447;43.460;25.744;2024-02-14T10:01:51;20.95;;;6.65;;
38693;SDS011;24447;43.460;25.744;2024-02-14T10:04:17;14.90;;;6.10;;
38693;SDS011;24447;43.460;25.744;2024-02-14T10:06:47;16.60;;;6.40;;
38693;SDS011;24447;43.460;25.744;2024-02-14T10:09:20;19.15;;;6.35;;
38693;SDS011;24447;43.460;25.744;2024-02-14T10:11:47;17.65;;;7.35;;
38693;SDS011;24447;43.460;25.744;2024-02-14T10:14:13;14.68;;;4.70;;
38693;SDS011;24447;43.460;25.744;2024-02-14T10:16:39;16.23;;;7.30;;
38693;SDS011;24447;43.460;25.744;2024-02-14T10:19:13;18.95;;;7.00;;
38693;SDS011;24447;43.460;25.744;2024-02-14T10:21:42;21.23;;;8.50;;
38693;SDS011;24447;43.460;25.744;2024-02-14T10:24:08;17.75;;;7.50;;
38693;SDS011;24447;43.460;25.744;2024-02-14T10:26:36;43.03;;;21.40;;
38693;SDS011;24447;43.460;25.744;2024-02-14T10:29:02;26.75;;;10.70;;
38693;SDS011;24447;43.460;25.744;2024-02-14T10:31:28;11.98;;;5.13;;
38693;SDS011;24447;43.460;25.744;2024-02-14T10:33:54;18.35;;;6.63;;
38693;SDS011;24447;43.460;25.744;2024-02-14T10:36:23;34.58;;;12.93;;
38693;SDS011;24447;43.460;25.744;2024-02-14T10:38:50;25.33;;;10.60;;
38693;SDS011;24447;43.460;25.744;2024-02-14T10:41:17;25.23;;;9.23;;
38693;SDS011;24447;43.460;25.744;2024-02-14T10:43:43;14.32;;;6.10;;
38693;SDS011;24447;43.460;25.744;2024-02-14T10:46:19;15.85;;;5.82;;
38693;SDS011;24447;43.460;25.744;2024-02-14T10:48:46;13.98;;;5.80;;
38693;SDS011;24447;43.460;25.744;2024-02-14T10:51:14;17.48;;;5.13;;
38693;SDS011;24447;43.460;25.744;2024-02-14T10:53:41;14.20;;;5.45;;
38693;SDS011;24447;43.460;25.744;2024-02-14T10:56:10;16.17;;;6.90;;
38693;SDS011;24447;43.460;25.744;2024-02-14T10:58:38;11.80;;;4.75;;
38693;SDS011;24447;43.460;25.744;2024-02-14T11:01:04;13.20;;;4.82;;
38693;SDS011;24447;43.460;25.744;2024-02-14T11:03:32;16.55;;;4.82;;
38693;SDS011;24447;43.460;25.744;2024-02-14T11:06:01;13.73;;;5.18;;
38693;SDS011;24447;43.460;25.744;2024-02-14T11:08:28;16.48;;;5.93;;
38693;SDS011;24447;43.460;25.744;2024-02-14T11:10:59;27.58;;;9.65;;
38693;SDS011;24447;43.460;25.744;2024-02-14T11:13:28;24.40;;;10.25;;
38693;SDS011;24447;43.460;25.744;2024-02-14T11:16:01;21.20;;;8.13;;
38693;SDS011;24447;43.460;25.744;2024-02-14T11:18:29;20.77;;;7.32;;
38693;SDS011;24447;43.460;25.744;2024-02-14T11:20:56;16.60;;;6.50;;
38693;SDS011;24447;43.460;25.744;2024-02-14T11:23:25;23.25;;;10.32;;
38693;SDS011;24447;43.460;25.744;2024-02-14T11:26:01;11.90;;;4.60;;
38693;SDS011;24447;43.460;25.744;2024-02-14T11:28:30;15.90;;;7.03;;
38693;SDS011;24447;43.460;25.744;2024-02-14T11:31:02;25.30;;;9.23;;
38693;SDS011;24447;43.460;25.744;2024-02-14T11:33:29;18.63;;;8.27;;
38693;SDS011;24447;43.460;25.744;2024-02-14T11:35:55;26.05;;;7.82;;
38693;SDS011;24447;43.460;25.744;2024-02-14T11:38:22;22.15;;;8.43;;
38693;SDS011;24447;43.460;25.744;2024-02-14T11:40:50;18.73;;;7.85;;
38693;SDS011;24447;43.460;25.744;2024-02-14T11:43:19;21.77;;;9.38;;
38693;SDS011;24447;43.460;25.744;2024-02-14T11:45:45;20.55;;;7.43;;
38693;SDS011;24447;43.460;25.744;2024-02-14T11:48:15;20.73;;;6.60;;
38693;SDS011;24447;43.460;25.744;2024-02-14T11:50:43;20.33;;;7.65;;
38693;SDS011;24447;43.460;25.744;2024-02-14T11:53:10;23.13;;;8.23;;
38693;SDS011;24447;43.460;25.744;2024-02-14T11:55:37;19.17;;;7.20;;
38693;SDS011;24447;43.460;25.744;2024-02-14T11:58:10;15.38;;;6.93;;
38693;SDS011;24447;43.460;25.744;2024-02-14T12:00:40;22.23;;;8.25;;
38693;SDS011;24447;43.460;25.744;2024-02-14T12:03:07;16.52;;;7.05;;
38693;SDS011;24447;43.460;25.744;2024-02-14T12:05:52;21.27;;;6.93;;
38693;SDS011;24447;43.460;25.744;2024-02-14T12:08:19;27.67;;;11.93;;
38693;SDS011;24447;43.460;25.744;2024-02-14T12:10:46;23.63;;;9.57;;
38693;SDS011;24447;43.460;25.744;2024-02-14T12:13:14;25.65;;;11.05;;
38693;SDS011;24447;43.460;25.744;2024-02-14T12:15:43;36.17;;;16.15;;
38693;SDS011;24447;43.460;25.744;2024-02-14T12:18:11;30.02;;;17.42;;
38693;SDS011;24447;43.460;25.744;2024-02-14T12:20:37;26.23;;;10.55;;
38693;SDS011;24447;43.460;25.744;2024-02-14T12:23:03;29.35;;;11.43;;
38693;SDS011;24447;43.460;25.744;2024-02-14T12:25:33;30.17;;;11.70;;
38693;SDS011;24447;43.460;25.744;2024-02-14T12:27:59;25.90;;;10.48;;
38693;SDS011;24447;43.460;25.744;2024-02-14T12:30:50;24.95;;;9.55;;
38693;SDS011;24447;43.460;25.744;2024-02-14T12:33:21;38.40;;;17.77;;
38693;SDS011;24447;43.460;25.744;2024-02-14T12:35:48;47.83;;;15.65;;
38693;SDS011;24447;43.460;25.744;2024-02-14T12:38:16;46.67;;;17.98;;
38693;SDS011;24447;43.460;25.744;2024-02-14T12:40:42;36.75;;;12.80;;
38693;SDS011;24447;43.460;25.744;2024-02-14T12:43:12;28.58;;;11.68;;
38693;SDS011;24447;43.460;25.744;2024-02-14T12:45:39;30.38;;;12.73;;
38693;SDS011;24447;43.460;25.744;2024-02-14T12:48:06;40.17;;;13.90;;
38693;SDS011;24447;43.460;25.744;2024-02-14T12:50:33;38.58;;;14.25;;
38693;SDS011;24447;43.460;25.744;2024-02-14T12:53:00;37.95;;;13.45;;
38693;SDS011;24447;43.460;25.744;2024-02-14T12:55:29;24.25;;;7.32;;
38693;SDS011;24447;43.460;25.744;2024-02-14T12:57:55;21.60;;;8.23;;
38693;SDS011;24447;43.460;25.744;2024-02-14T13:00:22;24.45;;;8.23;;
38693;SDS011;24447;43.460;25.744;2024-02-14T13:02:48;18.63;;;6.95;;
38693;SDS011;24447;43.460;25.744;2024-02-14T13:05:15;24.73;;;8.27;;
38693;SDS011;24447;43.460;25.744;2024-02-14T13:07:41;21.27;;;6.97;;
38693;SDS011;24447;43.460;25.744;2024-02-14T13:10:07;17.05;;;7.43;;
38693;SDS011;24447;43.460;25.744;2024-02-14T13:12:39;14.90;;;6.32;;
38693;SDS011;24447;43.460;25.744;2024-02-14T13:15:05;27.75;;;9.63;;
38693;SDS011;24447;43.460;25.744;2024-02-14T13:17:32;23.10;;;9.35;;
38693;SDS011;24447;43.460;25.744;2024-02-14T13:19:58;49.47;;;10.70;;
38693;SDS011;24447;43.460;25.744;2024-02-14T13:22:25;21.38;;;6.47;;
38693;SDS011;24447;43.460;25.744;2024-02-14T13:24:54;30.55;;;10.75;;
38693;SDS011;24447;43.460;25.744;2024-02-14T13:27:21;29.10;;;12.63;;
38693;SDS011;24447;43.460;25.744;2024-02-14T13:29:48;41.28;;;19.73;;
38693;SDS011;24447;43.460;25.744;2024-02-14T13:32:14;43.78;;;19.35;;
38693;SDS011;24447;43.460;25.744;2024-02-14T13:34:40;42.88;;;14.43;;
38693;SDS011;24447;43.460;25.744;2024-02-14T13:37:08;48.38;;;16.73;;
38693;SDS011;24447;43.460;25.744;2024-02-14T13:39:34;37.65;;;13.63;;
38693;SDS011;24447;43.460;25.744;2024-02-14T13:42:00;43.17;;;17.27;;
38693;SDS011;24447;43.460;25.744;2024-02-14T13:44:26;33.60;;;12.93;;
38693;SDS011;24447;43.460;25.744;2024-02-14T13:46:53;50.65;;;19.23;;
38693;SDS011;24447;43.460;25.744;2024-02-14T13:49:19;39.22;;;13.57;;
38693;SDS011;24447;43.460;25.744;2024-02-14T13:51:48;30.70;;;11.45;;
38693;SDS011;24447;43.460;25.744;2024-02-14T13:54:17;38.70;;;13.00;;
38693;SDS011;24447;43.460;25.744;2024-02-14T13:56:47;33.63;;;12.38;;
38693;SDS011;24447;43.460;25.744;2024-02-14T13:59:13;39.45;;;13.50;;
38693;SDS011;24447;43.460;25.744;2024-02-14T14:01:40;34.10;;;12.70;;
38693;SDS011;24447;43.460;25.744;2024-02-14T14:04:06;27.23;;;9.68;;
38693;SDS011;24447;43.460;25.744;2024-02-14T14:06:32;26.60;;;9.63;;
38693;SDS011;24447;43.460;25.744;2024-02-14T14:09:00;22.98;;;8.55;;
38693;SDS011;24447;43.460;25.744;2024-02-14T14:11:27;20.45;;;5.97;;
38693;SDS011;24447;43.460;25.744;2024-02-14T14:13:53;21.90;;;7.63;;
38693;SDS011;24447;43.460;25.744;2024-02-14T14:16:19;83.70;;;33.95;;
38693;SDS011;24447;43.460;25.744;2024-02-14T14:18:47;51.13;;;24.33;;
38693;SDS011;24447;43.460;25.744;2024-02-14T14:21:14;41.35;;;19.10;;